Celik 1 — 9HKY9 — position and weather

sailwx.info

Track history (hours):
 
Tides and Currents Weather Stations Pressure Air Temp Water Temp Dewpoint Dewpoint Depression Visibility Wind Speed Wind Dir Waves Ship Positions

Celik 1

Last reported at 2014-Nov-13 02:12 UTC. Time now 2014-Nov-23 17:26 UTC.
Position N 37°35' E 026°38'.
Warning: this ship's position is 10 days out of date.

Length 121 m; draft 6.5 m.

Type: Cargo ship. MMSI: 249114000.

Date/timePositionNaut miles runAvg speedWind from/ knotsBaromVisibWave heightAir tempDewpointWater temp
2014-Nov-13 02:12N 37°35' E 026°38'7 8.7
2014-Nov-13 01:21N 37°41' E 026°33'7 8.6
2014-Nov-13 00:29N 37°48' E 026°29'11 9.2
2014-Nov-12 23:18N 37°58' E 026°23'53 8.6
2014-Nov-12 17:12N 38°48' E 026°05'6 9.8
2014-Nov-12 16:33N 38°53' E 025°60'21 9.2
2014-Nov-12 14:16N 39°11' E 025°46'171 8.6
2014-Nov-11 18:25N 40°54' E 028°43'910.0
2014-Nov-11 17:33N 40°56' E 028°54'2 1.8
2014-Nov-11 16:22N 40°58' E 028°56'0 0.0
2014-Nov-11 15:28N 40°58' E 028°56'0 0.0
2014-Nov-11 14:22N 40°58' E 028°56'0 0.0
2014-Nov-11 11:28N 40°58' E 028°56'0 0.0
2014-Nov-11 10:30N 40°58' E 028°56'2 2.3
2014-Nov-11 09:32N 40°59' E 028°59'18 8.6
2014-Nov-11 07:29N 41°16' E 029°07'8 0.5
2014-Nov-10 13:25N 41°24' E 029°05'4010.2
2014-Nov-10 09:30N 42°04' E 029°02'171 9.5
2014-Nov-09 15:27N 44°51' E 029°52'8 9.3
2014-Nov-09 14:33N 44°59' E 029°52'8 8.4
2014-Nov-09 13:33N 45°07' E 029°49'  
Track history (hours):
 
Tides and Currents Weather Stations Pressure Air Temp Water Temp Dewpoint Dewpoint Depression Visibility Wind Speed Wind Dir Waves Ship Positions

Celik 1

Last reported at 2014-Nov-13 02:12 UTC. Time now 2014-Nov-23 17:26 UTC.
Position N 37°35' E 026°38'.
Warning: this ship's position is 10 days out of date.

Length 121 m; draft 6.5 m.

Type: Cargo ship. MMSI: 249114000.

Date/timePositionNaut miles runAvg speedWind from/ knotsBaromVisibWave heightAir tempDewpointWater temp
2014-Nov-13 02:12N 37°35' E 026°38'7 8.7
2014-Nov-13 01:21N 37°41' E 026°33'7 8.6
2014-Nov-13 00:29N 37°48' E 026°29'11 9.2
2014-Nov-12 23:18N 37°58' E 026°23'53 8.6
2014-Nov-12 17:12N 38°48' E 026°05'6 9.8
2014-Nov-12 16:33N 38°53' E 025°60'21 9.2
2014-Nov-12 14:16N 39°11' E 025°46'171 8.6
2014-Nov-11 18:25N 40°54' E 028°43'910.0
2014-Nov-11 17:33N 40°56' E 028°54'2 1.8
2014-Nov-11 16:22N 40°58' E 028°56'0 0.0
2014-Nov-11 15:28N 40°58' E 028°56'0 0.0
2014-Nov-11 14:22N 40°58' E 028°56'0 0.0
2014-Nov-11 11:28N 40°58' E 028°56'0 0.0
2014-Nov-11 10:30N 40°58' E 028°56'2 2.3
2014-Nov-11 09:32N 40°59' E 028°59'18 8.6
2014-Nov-11 07:29N 41°16' E 029°07'8 0.5
2014-Nov-10 13:25N 41°24' E 029°05'4010.2
2014-Nov-10 09:30N 42°04' E 029°02'171 9.5
2014-Nov-09 15:27N 44°51' E 029°52'8 9.3
2014-Nov-09 14:33N 44°59' E 029°52'8 8.4
2014-Nov-09 13:33N 45°07' E 029°49'  

Dump ship's entire track history